Sorrento, Florida
Current Conditions -  °F | °C
As of 11:53 AM on Friday 28 Nov 2014 (Local Time) from KLEE Reporting Station
Clear Clear  
Wind Chill: 57°   Ceiling: Unl
Heat Index: 57°   Visibility: 10mi
Dew Point: 38°   Wind: 8mph
Humidity: 49%   Direction: 360°N
Pressure: 30.34"   Gusts: NA
Location:  28.81°N, 81.56°W
Report Text: KLEE 281653Z 36007KT 10SM CLR 14/03 A3034 RMK AO2 SLP272 T01390033
Loading
Personal Weather Stations






























Interactive Weather Map New forecast layout! Learn more

10-Day Weather Forecast

Advertisements
Track Severe Weather on mobile